Time;durP1;ratioP1;P1;durP2;ratioP2;P2;SDS_P1;SDS_P2;PMS_P1;PMS_P2;Temp;Humidity;BMP_temperature;BMP_pressure;BME280_temperature;BME280_humidity;BME280_pressure;Samples;Min_cycle;Max_cycle;Signal;HPM_P1;HPM_P2
2022/11/01 00:01:41;;;;;;;28.88;9.80;;;;;;;14.78;100.00;100565.09;5032991;28;20120;-38
2022/11/01 00:04:07;;;;;;;33.42;9.07;;;;;;;14.83;100.00;100567.16;5032703;28;20111;-39
2022/11/01 00:06:33;;;;;;;27.55;8.50;;;;;;;14.82;100.00;100565.47;5032709;28;20080;-39
2022/11/01 00:08:58;;;;;;;24.92;7.95;;;;;;;14.86;100.00;100572.13;5031313;28;20521;-39
2022/11/01 00:11:24;;;;;;;20.52;8.18;;;;;;;14.88;100.00;100570.06;5031473;28;20392;-39
2022/11/01 00:13:49;;;;;;;23.42;8.57;;;;;;;14.93;100.00;100567.53;5030611;28;20374;-39
2022/11/01 00:16:16;;;;;;;20.20;10.00;;;;;;;14.94;100.00;100569.16;5031101;28;20385;-38
2022/11/01 00:18:41;;;;;;;22.35;8.68;;;;;;;14.94;100.00;100558.34;5030917;28;20392;-38
2022/11/01 00:21:07;;;;;;;23.85;8.25;;;;;;;15.04;100.00;100555.97;5031660;28;20025;-38
2022/11/01 00:23:32;;;;;;;23.60;8.00;;;;;;;15.07;100.00;100552.81;5031444;28;20029;-40
2022/11/01 00:25:59;;;;;;;16.70;8.13;;;;;;;15.12;100.00;100550.28;5030979;28;20124;-39
2022/11/01 00:28:24;;;;;;;28.10;8.55;;;;;;;15.11;100.00;100559.47;5031077;28;20113;-39
2022/11/01 00:30:54;;;;;;;25.90;8.10;;;;;;;15.06;100.00;100555.75;5031073;28;20766;-38
2022/11/01 00:33:19;;;;;;;22.30;7.72;;;;;;;15.07;100.00;100546.59;5031260;28;20041;-38
2022/11/01 00:35:47;;;;;;;26.45;8.18;;;;;;;15.12;100.00;100546.75;5030773;28;20033;-38
2022/11/01 00:38:14;;;;;;;20.58;7.63;;;;;;;15.13;100.00;100549.22;5031229;28;20033;-38
2022/11/01 00:40:40;;;;;;;23.55;8.30;;;;;;;15.07;100.00;100560.97;5031247;28;20030;-38
2022/11/01 00:43:05;;;;;;;23.70;8.10;;;;;;;15.11;100.00;100543.22;5031082;28;20095;-38
2022/11/01 00:45:31;;;;;;;21.50;7.63;;;;;;;15.12;100.00;100546.75;5030493;28;20441;-39
2022/11/01 00:47:56;;;;;;;30.42;9.18;;;;;;;15.14;100.00;100531.94;5030612;28;20038;-39
2022/11/01 00:50:22;;;;;;;31.90;8.15;;;;;;;15.19;100.00;100533.13;5030976;28;20032;-38
2022/11/01 00:52:47;;;;;;;20.70;7.82;;;;;;;15.24;100.00;100536.84;5030399;28;20033;-38
2022/11/01 00:55:12;;;;;;;18.50;7.78;;;;;;;15.30;100.00;100532.44;5030895;28;20065;-38
2022/11/01 00:57:38;;;;;;;22.75;7.85;;;;;;;15.27;100.00;100530.16;5030603;28;20361;-38
2022/11/01 01:00:04;;;;;;;19.45;7.38;;;;;;;15.34;100.00;100530.94;5030430;28;20337;-38
2022/11/01 01:02:29;;;;;;;14.65;6.43;;;;;;;15.27;100.00;100522.03;5030432;28;20117;-38
2022/11/01 01:04:55;;;;;;;22.17;7.68;;;;;;;15.26;100.00;100528.50;5030792;28;20525;-38
2022/11/01 01:07:20;;;;;;;17.10;7.57;;;;;;;15.26;100.00;100518.50;5010792;28;1075353;-41
2022/11/01 01:09:46;;;;;;;15.80;7.38;;;;;;;15.25;100.00;100518.72;5031872;28;20128;-38
2022/11/01 01:12:11;;;;;;;17.88;7.90;;;;;;;15.25;100.00;100521.44;5031150;28;20021;-38
2022/11/01 01:14:36;;;;;;;14.35;7.28;;;;;;;15.34;100.00;100517.38;5031207;28;20049;-39
2022/11/01 01:17:02;;;;;;;23.98;8.07;;;;;;;15.31;100.00;100515.94;5031227;28;20029;-38
2022/11/01 01:19:28;;;;;;;26.88;7.93;;;;;;;15.34;100.00;100520.09;5031558;28;20029;-38
2022/11/01 01:21:54;;;;;;;23.88;7.32;;;;;;;15.42;100.00;100521.72;5030062;28;20030;-38
2022/11/01 01:24:20;;;;;;;20.70;7.57;;;;;;;15.49;100.00;100520.59;5031499;28;20036;-38
2022/11/01 01:26:45;;;;;;;21.48;6.82;;;;;;;15.58;100.00;100519.25;5031057;28;20103;-38
2022/11/01 01:29:10;;;;;;;13.70;7.05;;;;;;;15.67;100.00;100519.00;5029354;28;20025;-38
2022/11/01 01:31:35;;;;;;;27.52;7.13;;;;;;;15.70;100.00;100515.84;5029578;28;20116;-38
2022/11/01 01:34:01;;;;;;;21.67;8.35;;;;;;;15.71;100.00;100512.06;5030069;28;20127;-38
2022/11/01 01:36:26;;;;;;;22.42;7.78;;;;;;;15.64;100.00;100524.84;5029543;28;20124;-38
2022/11/01 01:38:52;;;;;;;16.23;7.47;;;;;;;15.54;100.00;100528.91;5030754;28;20060;-38
2022/11/01 01:44:40;;;;;;;19.73;7.40;;;;;;;15.45;100.00;100522.09;5030663;28;20049;-38
2022/11/01 01:47:07;;;;;;;22.58;7.45;;;;;;;15.47;100.00;100530.00;5029981;28;20061;-37
2022/11/01 01:49:33;;;;;;;24.10;8.02;;;;;;;15.54;100.00;100525.38;5030854;28;20041;-39
2022/11/01 01:51:58;;;;;;;19.85;7.38;;;;;;;15.61;100.00;100541.56;5028935;28;20034;-38
2022/11/01 01:54:23;;;;;;;19.67;7.22;;;;;;;15.72;100.00;100533.56;5028411;28;20044;-38
2022/11/01 01:56:49;;;;;;;16.95;6.18;;;;;;;15.73;100.00;100545.25;5030157;28;20072;-38
2022/11/01 01:59:14;;;;;;;20.70;6.63;;;;;;;15.72;100.00;100525.44;5030617;28;20052;-39
2022/11/01 02:01:40;;;;;;;16.55;6.60;;;;;;;15.57;100.00;100533.88;5030657;28;20037;-38
2022/11/01 02:04:09;;;;;;;17.77;6.53;;;;;;;15.45;100.00;100542.94;5029507;28;20029;-39
2022/11/01 02:06:35;;;;;;;11.13;6.50;;;;;;;15.36;100.00;100543.22;5029314;28;20041;-39
2022/11/01 02:09:02;;;;;;;14.05;6.45;;;;;;;15.31;100.00;100536.81;5012719;28;20045;-41
2022/11/01 02:11:28;;;;;;;13.50;6.60;;;;;;;15.27;100.00;100551.84;5029817;28;20120;-38
2022/11/01 02:13:53;;;;;;;22.83;6.95;;;;;;;15.23;100.00;100553.34;5030876;28;20061;-39
2022/11/01 02:16:37;;;;;;;16.90;5.95;;;;;;;15.26;100.00;100548.31;5030552;28;21610;-38
2022/11/01 02:19:07;;;;;;;19.08;5.90;;;;;;;15.25;100.00;100538.53;5028720;28;20483;-39
2022/11/01 02:21:52;;;;;;;11.48;5.03;;;;;;;15.23;100.00;100545.22;4995860;28;20029;-37
2022/11/01 02:24:24;;;;;;;11.77;4.95;;;;;;;15.19;100.00;100543.97;5027291;28;20449;-37
2022/11/01 02:27:08;;;;;;;16.50;5.10;;;;;;;15.09;100.00;100556.16;5030216;28;20026;-38
2022/11/01 02:29:52;;;;;;;14.48;4.20;;;;;;;15.10;100.00;100568.66;5030088;28;20036;-37
2022/11/01 02:32:53;;;;;;;6.28;3.42;;;;;;;15.18;100.00;100555.88;5029754;28;20566;-38
2022/11/01 02:35:37;;;;;;;15.48;3.60;;;;;;;15.10;100.00;100568.66;5012179;28;20079;-38
2022/11/01 02:38:15;;;;;;;11.93;3.65;;;;;;;15.07;100.00;100558.25;5028828;28;20034;-37
2022/11/01 02:40:40;;;;;;;12.98;2.50;;;;;;;15.08;100.00;100565.31;5030055;28;20550;-37
2022/11/01 02:43:11;;;;;;;6.50;2.28;;;;;;;15.05;100.00;100592.88;5029930;28;20025;-39
2022/11/01 02:45:39;;;;;;;6.05;1.73;;;;;;;15.07;100.00;100569.09;5028833;28;20186;-38
2022/11/01 02:48:06;;;;;;;;;;;;;;;14.95;100.00;100570.81;5028789;28;20029;-37
2022/11/01 02:50:55;;;;;;;4.95;1.98;;;;;;;14.87;100.00;100576.50;5030113;28;20280;-37
2022/11/01 02:53:20;;;;;;;7.50;1.70;;;;;;;14.83;99.60;100583.41;5020861;28;20081;-37
2022/11/01 02:55:46;;;;;;;8.43;1.40;;;;;;;14.79;99.24;100582.16;5029807;28;20033;-36
2022/11/01 02:58:16;;;;;;;8.50;1.23;;;;;;;14.76;96.89;100577.19;5029446;28;20556;-38
2022/11/01 03:00:43;;;;;;;6.13;1.88;;;;;;;14.69;96.83;100604.28;5027998;28;20380;-37
2022/11/01 03:03:19;;;;;;;8.88;1.55;;;;;;;14.70;95.24;100587.00;5029685;28;20041;-37
2022/11/01 03:08:36;;;;;;;9.45;1.45;;;;;;;14.66;94.00;100594.72;5052915;22;20141;-80
2022/11/01 03:11:23;;;;;;;8.82;1.30;;;;;;;14.66;93.92;100594.72;5014452;28;20034;-80
2022/11/01 03:14:01;;;;;;;12.35;2.00;;;;;;;14.60;93.97;100609.13;5016115;28;20037;-81
2022/11/01 03:16:35;;;;;;;5.35;1.20;;;;;;;14.62;92.48;100609.75;5013063;28;20030;-83
2022/11/01 03:19:03;;;;;;;11.40;1.40;;;;;;;14.60;92.24;100608.31;5008169;28;20117;-81
2022/11/01 03:21:31;;;;;;;15.88;1.60;;;;;;;14.60;91.41;100611.84;5013973;28;20654;-81
2022/11/01 03:24:04;;;;;;;8.25;1.40;;;;;;;14.55;91.58;100618.94;5011835;28;20018;-82
2022/11/01 03:26:31;;;;;;;12.93;1.67;;;;;;;14.54;90.89;100620.81;5013089;28;20030;-80
2022/11/01 03:28:59;;;;;;;8.43;1.13;;;;;;;14.51;91.70;100610.41;5012696;28;20052;-81
2022/11/01 03:31:29;;;;;;;13.70;1.92;;;;;;;14.45;92.74;100616.66;5011169;28;20028;-81
2022/11/01 03:34:15;;;;;;;10.00;1.45;;;;;;;14.35;94.81;100629.78;5011134;28;20030;-82
2022/11/01 03:36:47;;;;;;;9.32;1.38;;;;;;;14.26;95.20;100631.91;5012531;28;20045;-83
2022/11/01 03:39:20;;;;;;;16.17;1.73;;;;;;;14.21;92.99;100647.94;5011507;28;20405;-82
2022/11/01 03:41:48;;;;;;;13.93;1.95;;;;;;;14.15;93.40;100646.09;5012869;28;20022;-80
2022/11/01 03:44:13;;;;;;;19.50;2.20;;;;;;;14.15;91.60;100665.84;4992237;28;20041;-83
2022/11/01 03:46:40;;;;;;;22.27;2.05;;;;;;;14.12;90.70;100650.03;5005809;28;20030;-78
2022/11/01 03:49:05;;;;;;;19.75;1.95;;;;;;;14.09;89.87;100652.34;5001181;28;20034;-80
2022/11/01 03:51:31;;;;;;;16.08;1.98;;;;;;;14.10;88.79;100670.22;5012286;28;20076;-81
2022/11/01 03:53:56;;;;;;;23.85;2.78;;;;;;;14.06;88.69;100675.25;5012663;28;20030;-82
2022/11/01 03:56:22;;;;;;;17.48;1.98;;;;;;;13.99;89.41;100674.41;5012655;28;20116;-80
2022/11/01 03:58:47;;;;;;;14.07;1.92;;;;;;;13.93;88.95;100673.38;5013144;28;20650;-80
2022/11/01 04:01:14;;;;;;;15.30;1.30;;;;;;;13.89;89.31;100666.69;5012785;28;20042;-79
2022/11/01 04:03:40;;;;;;;10.88;1.45;;;;;;;13.86;89.96;100680.66;5010939;28;20435;-79
2022/11/01 04:06:05;;;;;;;10.73;1.70;;;;;;;13.84;90.71;100688.94;5011747;28;20045;-80
2022/11/01 04:08:31;;;;;;;22.85;2.33;;;;;;;13.78;91.27;100689.78;5012746;28;20057;-80
2022/11/01 04:10:56;;;;;;;11.77;1.92;;;;;;;13.76;91.17;100697.28;5014056;28;20045;-81
2022/11/01 04:13:22;;;;;;;11.82;1.88;;;;;;;13.71;91.47;100693.53;5015222;28;20938;-82
2022/11/01 04:21:18;;;;;;;19.92;1.63;;;;;;;13.56;90.23;100701.81;5015060;28;20049;-80
2022/11/01 04:23:44;;;;;;;;;;;;;;;13.47;89.69;100698.47;5015138;28;20076;-81
2022/11/01 04:26:17;;;;;;;20.95;2.05;;;;;;;13.46;89.14;100707.63;5015410;28;20003;-80
2022/11/01 04:28:58;;;;;;;17.23;1.88;;;;;;;13.38;89.39;100689.72;5015389;28;20110;-80
2022/11/01 04:31:34;;;;;;;15.93;1.98;;;;;;;13.33;88.98;100711.13;5015100;28;20095;-80
2022/11/01 04:34:01;;;;;;;11.60;1.77;;;;;;;13.33;88.30;100716.53;5016309;28;20057;-80
2022/11/01 04:36:26;;;;;;;11.82;1.50;;;;;;;13.29;88.92;100720.66;5000924;28;20057;-78
2022/11/01 04:38:55;;;;;;;11.80;1.80;;;;;;;13.25;89.35;100710.47;5015175;28;20175;-81
2022/11/01 04:41:21;;;;;;;14.70;1.95;;;;;;;13.20;88.92;100705.66;5014462;28;20109;-80
2022/11/01 04:43:47;;;;;;;24.55;3.00;;;;;;;13.15;88.60;100718.94;5015034;28;20040;-80
2022/11/01 04:46:13;;;;;;;20.70;1.92;;;;;;;13.13;87.25;100724.53;5015460;28;20034;-80
2022/11/01 04:48:38;;;;;;;24.10;2.45;;;;;;;13.11;86.46;100712.25;5017661;28;20450;-81
2022/11/01 04:51:03;;;;;;;22.15;2.72;;;;;;;13.09;86.06;100712.47;5019945;28;20038;-81
2022/11/01 04:53:29;;;;;;;22.80;2.72;;;;;;;13.07;86.48;100716.41;5014997;28;20519;-80
2022/11/01 04:55:54;;;;;;;11.30;2.05;;;;;;;13.01;87.01;100719.94;5014276;28;20038;-81
2022/11/01 04:58:20;;;;;;;17.08;2.47;;;;;;;12.98;87.05;100709.50;5014908;28;20029;-82
2022/11/01 05:00:45;;;;;;;18.63;1.90;;;;;;;12.93;87.26;100713.66;5015205;28;20089;-82
2022/11/01 05:03:11;;;;;;;25.50;1.88;;;;;;;12.90;87.49;100708.66;5013276;28;20034;-82
2022/11/01 05:05:38;;;;;;;15.85;2.15;;;;;;;12.84;87.75;100701.34;5013755;28;20043;-82
2022/11/01 05:08:08;;;;;;;19.73;2.45;;;;;;;12.81;87.84;100725.22;5014465;28;20505;-79
2022/11/01 05:10:34;;;;;;;14.90;2.38;;;;;;;12.80;87.37;100724.38;5014374;28;20031;-80
2022/11/01 05:13:00;;;;;;;19.88;2.15;;;;;;;12.78;87.59;100720.22;5012960;28;20033;-79
2022/11/01 05:15:26;;;;;;;14.68;1.85;;;;;;;12.77;87.63;100708.59;5014392;28;20030;-83
2022/11/01 05:17:51;;;;;;;15.55;1.80;;;;;;;12.79;87.35;100709.19;5014386;28;20582;-83
2022/11/01 05:20:17;;;;;;;12.40;1.73;;;;;;;12.84;86.65;100736.44;5015116;28;20029;-81
2022/11/01 05:22:42;;;;;;;18.73;1.55;;;;;;;12.84;86.42;100714.00;5012274;28;20056;-81
2022/11/01 05:25:11;;;;;;;17.20;2.05;;;;;;;12.79;86.10;100722.69;5014439;28;20052;-81
2022/11/01 05:27:37;;;;;;;10.75;1.75;;;;;;;12.78;86.21;100731.84;5014662;28;20060;-82
2022/11/01 05:30:04;;;;;;;21.02;2.70;;;;;;;12.82;85.54;100738.53;5014667;28;20026;-83
2022/11/01 05:32:29;;;;;;;17.70;1.88;;;;;;;12.86;84.61;100742.47;5014836;28;20112;-81
2022/11/01 05:34:55;;;;;;;16.55;2.15;;;;;;;12.83;84.23;100729.38;5013797;28;20034;-82
2022/11/01 05:37:20;;;;;;;20.45;2.20;;;;;;;12.80;84.48;100735.19;5015080;28;20030;-83
2022/11/01 05:39:45;;;;;;;22.05;2.47;;;;;;;12.78;84.06;100737.25;4997564;28;20026;-83
2022/11/01 05:42:11;;;;;;;13.82;2.10;;;;;;;12.81;83.56;100753.06;5013963;28;20033;-83
2022/11/01 05:44:36;;;;;;;17.35;2.22;;;;;;;12.80;83.30;100743.28;5014313;28;20030;-81
2022/11/01 05:47:04;;;;;;;25.65;3.60;;;;;;;12.79;83.45;100736.19;5014340;28;20038;-83
2022/11/01 05:49:30;;;;;;;22.13;2.38;;;;;;;12.81;82.98;100744.94;5007512;28;20050;-81
2022/11/01 05:51:56;;;;;;;22.67;2.95;;;;;;;12.84;82.37;100752.66;5013089;28;20108;-84
2022/11/01 05:54:21;;;;;;;16.30;2.10;;;;;;;12.86;82.46;100757.88;5002674;28;20501;-82
2022/11/01 05:56:46;;;;;;;19.85;2.03;;;;;;;12.86;82.32;100739.78;4995428;28;20515;-85
2022/11/01 05:59:11;;;;;;;23.05;2.60;;;;;;;12.89;81.68;100738.56;4995257;28;20426;-83
2022/11/01 06:01:37;;;;;;;20.38;2.70;;;;;;;12.88;82.01;100756.63;5006342;28;20496;-83
2022/11/01 06:04:02;;;;;;;20.30;2.75;;;;;;;12.84;81.80;100760.75;5014411;28;20384;-84
2022/11/01 06:06:28;;;;;;;27.63;3.15;;;;;;;12.79;82.18;100782.13;5014145;28;20421;-84
2022/11/01 06:08:56;;;;;;;26.58;3.20;;;;;;;12.77;81.70;100792.31;5015043;28;20128;-83
2022/11/01 06:11:21;;;;;;;15.43;2.47;;;;;;;12.80;81.27;100773.00;5014471;28;20054;-83
2022/11/01 06:13:47;;;;;;;23.08;2.90;;;;;;;12.79;81.15;100765.91;5013770;28;20037;-83
2022/11/01 06:16:12;;;;;;;19.58;2.92;;;;;;;12.79;80.83;100771.31;5013269;28;20034;-81
2022/11/01 06:18:38;;;;;;;21.13;2.97;;;;;;;12.76;81.18;100769.00;5014406;28;20029;-82
2022/11/01 06:21:03;;;;;;;20.95;2.58;;;;;;;12.75;81.21;100770.06;5014278;28;20041;-83
2022/11/01 06:23:28;;;;;;;21.60;2.63;;;;;;;12.73;81.17;100772.94;5015361;28;20053;-82
2022/11/01 06:26:01;;;;;;;18.23;2.55;;;;;;;12.78;80.68;100779.63;5014566;28;20529;-81
2022/11/01 06:28:26;;;;;;;29.88;3.42;;;;;;;12.83;80.41;100786.09;5019129;28;20558;-84
2022/11/01 06:30:52;;;;;;;39.53;3.17;;;;;;;12.86;80.02;100783.00;5015857;28;20053;-82
2022/11/01 06:33:17;;;;;;;22.10;2.67;;;;;;;12.91;79.91;100796.75;5015240;28;20041;-83
2022/11/01 06:35:42;;;;;;;19.75;2.78;;;;;;;12.90;80.27;100821.25;5014113;28;20036;-84
2022/11/01 06:38:08;;;;;;;20.23;2.65;;;;;;;12.83;80.58;100815.81;5015213;28;20033;-82
2022/11/01 06:40:34;;;;;;;18.63;2.28;;;;;;;12.78;81.39;100810.16;5013818;28;20038;-80
2022/11/01 06:43:01;;;;;;;31.67;3.28;;;;;;;12.76;81.40;100823.03;5016004;28;20022;-85
2022/11/01 06:45:26;;;;;;;27.73;3.35;;;;;;;12.74;81.90;100822.38;5013536;28;20079;-83
2022/11/01 06:47:51;;;;;;;24.00;3.05;;;;;;;12.73;82.30;100818.84;5016059;28;20427;-85
2022/11/01 06:50:17;;;;;;;20.33;3.28;;;;;;;12.70;82.52;100831.91;5015179;28;20026;-84
2022/11/01 06:52:42;;;;;;;29.33;3.33;;;;;;;12.71;82.43;100823.59;5015212;28;20036;-85
2022/11/01 06:55:08;;;;;;;25.25;2.53;;;;;;;12.74;82.60;100834.03;5015324;28;20033;-85
2022/11/01 06:57:33;;;;;;;19.60;3.03;;;;;;;12.76;82.68;100846.50;5015195;28;20061;-83
2022/11/01 06:59:58;;;;;;;24.80;3.03;;;;;;;12.72;83.03;100843.38;5015212;28;20038;-86
2022/11/01 07:02:24;;;;;;;38.05;3.67;;;;;;;12.72;83.30;100851.47;5015237;28;20030;-86
2022/11/01 07:04:50;;;;;;;27.35;2.42;;;;;;;12.73;83.70;100863.94;5014474;28;20397;-84
2022/11/01 07:07:15;;;;;;;30.30;3.92;;;;;;;12.76;83.23;100873.50;5014294;28;20041;-84
2022/11/01 07:09:40;;;;;;;28.00;3.97;;;;;;;12.77;83.18;100877.88;5014393;28;20033;-85
2022/11/01 07:12:06;;;;;;;27.98;2.92;;;;;;;12.76;83.27;100893.25;4997850;28;20026;-84
2022/11/01 07:14:31;;;;;;;26.88;3.35;;;;;;;12.77;82.97;100886.81;5014649;28;20030;-88
2022/11/01 07:16:56;;;;;;;27.45;2.95;;;;;;;12.80;82.95;100882.91;5014574;28;20060;-84
2022/11/01 07:19:22;;;;;;;26.60;3.25;;;;;;;12.80;83.17;100886.44;5014910;28;20026;-86
2022/11/01 07:21:49;;;;;;;33.72;3.25;;;;;;;12.79;83.24;100938.75;5015080;28;20026;-82
2022/11/01 07:24:14;;;;;;;19.90;2.77;;;;;;;12.78;83.10;100938.97;5012775;28;20030;-83
2022/11/01 07:26:40;;;;;;;22.83;2.85;;;;;;;12.80;83.33;100921.53;5014985;28;20041;-85
2022/11/01 07:29:05;;;;;;;27.58;3.63;;;;;;;12.85;83.29;100932.59;5014493;28;20026;-83
2022/11/01 07:31:32;;;;;;;20.83;2.58;;;;;;;12.91;83.26;100941.78;5014360;28;20484;-85
2022/11/01 07:33:59;;;;;;;25.17;2.65;;;;;;;12.98;83.31;100949.94;5014458;28;20026;-83
2022/11/01 07:36:24;;;;;;;21.42;2.95;;;;;;;12.90;83.12;100953.59;5014313;28;20037;-82
2022/11/01 07:38:49;;;;;;;27.90;3.08;;;;;;;13.03;83.31;100944.78;5014686;28;20030;-87
2022/11/01 07:41:14;;;;;;;25.83;2.90;;;;;;;13.06;82.82;100949.78;5014391;28;20025;-85
2022/11/01 07:43:40;;;;;;;24.02;2.45;;;;;;;13.16;82.39;100966.50;5014200;28;20038;-84
2022/11/01 07:46:06;;;;;;;27.80;3.53;;;;;;;13.34;82.27;100985.81;5016604;28;20093;-84
2022/11/01 07:48:32;;;;;;;23.38;2.80;;;;;;;13.36;81.71;100989.16;5018555;28;20041;-83
2022/11/01 07:50:58;;;;;;;22.20;2.72;;;;;;;13.60;81.10;100973.50;5016198;28;20021;-85
2022/11/01 07:53:24;;;;;;;31.95;3.83;;;;;;;13.82;79.71;100968.84;5018380;28;20037;-86
2022/11/01 07:55:50;;;;;;;20.70;2.92;;;;;;;14.18;79.13;100992.13;5018119;28;20041;-87
2022/11/01 07:58:16;;;;;;;22.50;2.85;;;;;;;14.35;77.71;100984.47;5018220;28;20085;-86
2022/11/01 08:00:42;;;;;;;20.38;3.15;;;;;;;14.18;77.71;100986.69;5019626;28;20125;-84
2022/11/01 08:03:11;;;;;;;20.15;2.58;;;;;;;13.95;78.44;100971.59;5020601;28;20025;-83
2022/11/01 08:05:36;;;;;;;26.20;3.00;;;;;;;14.18;78.23;100986.69;5021648;28;20042;-84
2022/11/01 08:08:02;;;;;;;31.95;3.05;;;;;;;14.30;77.63;101001.34;5019750;28;20421;-85
2022/11/01 08:10:28;;;;;;;19.85;2.72;;;;;;;14.30;78.15;101005.88;5016547;28;20423;-83
2022/11/01 08:13:01;;;;;;;21.60;2.55;;;;;;;14.59;77.18;101010.22;5016461;28;20044;-85
2022/11/01 08:15:26;;;;;;;23.42;3.22;;;;;;;14.59;76.53;101016.47;5017164;28;20531;-84
2022/11/01 08:17:54;;;;;;;15.63;2.70;;;;;;;14.18;77.94;101011.88;5018019;28;20069;-87
2022/11/01 08:20:19;;;;;;;24.70;3.45;;;;;;;14.46;76.70;101025.34;5017476;28;20093;-86
2022/11/01 08:22:45;;;;;;;15.23;2.13;;;;;;;14.42;77.41;101036.78;5017566;28;20076;-85
2022/11/01 08:25:10;;;;;;;20.38;2.55;;;;;;;14.35;78.10;101023.22;5019254;28;20029;-83
2022/11/01 08:27:35;;;;;;;25.27;2.35;;;;;;;14.40;77.30;101055.94;5020294;28;20109;-84
2022/11/01 08:30:01;;;;;;;23.27;2.78;;;;;;;14.31;77.08;101056.31;5023135;28;20121;-84
2022/11/01 08:32:26;;;;;;;22.45;2.88;;;;;;;14.50;77.26;101033.88;5020303;28;20160;-86
2022/11/01 08:34:52;;;;;;;20.70;2.67;;;;;;;14.25;76.63;101069.63;5017585;28;20026;-82
2022/11/01 08:37:18;;;;;;;17.75;3.03;;;;;;;14.32;76.34;101050.69;5017265;28;20036;-83
2022/11/01 08:39:44;;;;;;;16.33;1.95;;;;;;;14.09;77.71;101042.06;5016573;28;20037;-83
2022/11/01 08:42:09;;;;;;;20.67;2.33;;;;;;;14.56;76.42;101041.25;5015535;28;20092;-84
2022/11/01 08:44:34;;;;;;;24.23;4.13;;;;;;;14.99;75.02;101068.03;5016950;28;20029;-82
2022/11/01 08:47:00;;;;;;;19.00;2.80;;;;;;;14.65;75.76;101064.38;5017666;28;20022;-83
2022/11/01 08:49:26;;;;;;;15.07;2.28;;;;;;;14.91;74.29;101073.63;5018075;28;20286;-84
2022/11/01 08:51:52;;;;;;;23.08;2.80;;;;;;;14.96;73.86;101076.56;5016732;28;20065;-84
2022/11/01 08:54:17;;;;;;;20.08;2.25;;;;;;;14.52;75.51;101072.44;5020080;28;20030;-82
2022/11/01 08:56:42;;;;;;;20.80;3.10;;;;;;;14.38;76.47;101065.31;5018846;28;20037;-82
2022/11/01 08:59:08;;;;;;;26.15;2.80;;;;;;;13.97;77.48;101076.94;5017791;28;20402;-82
2022/11/01 09:01:33;;;;;;;22.88;2.95;;;;;;;14.10;77.79;101087.84;5017423;28;20056;-82
2022/11/01 09:04:00;;;;;;;19.35;2.70;;;;;;;14.15;78.05;101090.78;5001730;28;20033;-84
2022/11/01 09:06:26;;;;;;;20.73;2.65;;;;;;;13.94;78.77;101104.41;5019720;28;20056;-84
2022/11/01 09:08:52;;;;;;;16.77;2.42;;;;;;;14.10;79.12;101090.56;5019417;28;20018;-83
2022/11/01 09:11:18;;;;;;;14.38;2.28;;;;;;;14.21;78.81;101114.34;5016401;28;20030;-82
2022/11/01 09:13:43;;;;;;;16.13;2.08;;;;;;;14.28;78.95;101106.28;5016520;28;20105;-84
2022/11/01 09:16:09;;;;;;;19.90;3.20;;;;;;;14.17;78.99;101107.69;5015659;28;20132;-84
2022/11/01 09:18:34;;;;;;;18.25;2.70;;;;;;;14.19;79.30;101111.03;5016060;28;20503;-83
2022/11/01 09:20:59;;;;;;;17.58;2.65;;;;;;;14.26;79.74;101124.59;5015725;28;20529;-82
2022/11/01 09:23:25;;;;;;;23.48;3.13;;;;;;;14.32;79.09;101120.25;5014401;28;20109;-82
2022/11/01 09:25:50;;;;;;;21.92;2.88;;;;;;;14.15;79.63;101139.50;5015860;28;20153;-83
2022/11/01 09:28:15;;;;;;;20.08;2.75;;;;;;;14.17;80.24;101126.63;5016666;28;20387;-84
2022/11/01 09:30:41;;;;;;;28.42;3.38;;;;;;;14.10;80.01;101131.16;5016009;28;20461;-85
2022/11/01 09:33:06;;;;;;;26.02;3.33;;;;;;;14.00;80.08;101122.53;5015903;28;20030;-83
2022/11/01 09:35:33;;;;;;;28.55;2.75;;;;;;;14.07;80.57;101115.31;5016205;28;20041;-87
2022/11/01 09:38:00;;;;;;;16.55;2.45;;;;;;;14.32;80.18;101122.94;5016353;28;20410;-84
2022/11/01 09:40:28;;;;;;;15.95;2.78;;;;;;;14.46;79.23;101136.38;5017193;28;20040;-81
2022/11/01 09:42:53;;;;;;;19.50;2.38;;;;;;;14.79;78.65;101126.75;5019676;28;20018;-82
2022/11/01 09:45:20;;;;;;;19.58;2.58;;;;;;;15.04;76.63;101138.72;5014735;28;20030;-84
2022/11/01 09:47:57;;;;;;;29.33;3.00;;;;;;;14.61;77.85;101147.13;5015134;28;20034;-81
2022/11/01 09:50:33;;;;;;;16.95;2.60;;;;;;;14.85;77.13;101156.59;5015844;28;20073;-84
2022/11/01 09:52:59;;;;;;;17.33;2.67;;;;;;;14.95;77.34;101145.34;5014207;28;20485;-83
2022/11/01 09:56:00;;;;;;;25.05;2.80;;;;;;;14.80;77.30;101163.66;5014499;28;20029;-81
2022/11/01 09:58:32;;;;;;;20.15;2.42;;;;;;;14.65;78.01;101145.66;5015963;28;20029;-82
2022/11/01 10:01:05;;;;;;;28.10;3.17;;;;;;;14.85;77.76;101156.59;5015215;28;20030;-83
2022/11/01 10:03:44;;;;;;;21.42;2.88;;;;;;;14.57;78.26;101178.34;5015500;28;20485;-83
2022/11/01 10:06:14;;;;;;;16.25;2.30;;;;;;;14.31;79.78;101160.03;5015450;28;20554;-84
2022/11/01 10:08:58;;;;;;;21.15;2.63;;;;;;;14.39;80.08;101164.44;4996377;28;20041;-86
2022/11/01 10:11:29;;;;;;;18.70;3.35;;;;;;;14.26;80.44;101187.69;5014505;28;20496;-85
2022/11/01 10:14:21;;;;;;;21.95;3.90;;;;;;;14.45;79.92;101177.19;5014728;28;20030;-83
2022/11/01 10:17:10;;;;;;;19.33;2.50;;;;;;;14.47;79.80;101183.25;5014788;28;20033;-84
2022/11/01 10:19:35;;;;;;;23.00;2.80;;;;;;;14.45;80.26;101190.72;5013648;28;20105;-83
2022/11/01 10:22:18;;;;;;;24.52;3.13;;;;;;;14.58;79.70;101187.28;5013408;28;20442;-83
2022/11/01 10:24:55;;;;;;;13.63;2.13;;;;;;;14.67;79.48;101203.19;5014763;28;20030;-84
2022/11/01 10:27:57;;;;;;;17.40;2.05;;;;;;;14.76;79.56;101200.31;5014020;28;20097;-84
2022/11/01 10:30:23;;;;;;;22.38;4.20;;;;;;;14.55;79.69;101210.19;5016663;28;20025;-83
2022/11/01 10:32:50;;;;;;;21.33;2.88;;;;;;;14.51;79.97;101198.06;5016070;28;20099;-83
2022/11/01 10:35:18;;;;;;;15.23;2.47;;;;;;;14.33;79.73;101189.63;5015873;28;20091;-85
2022/11/01 10:37:54;;;;;;;18.42;2.60;;;;;;;14.35;80.00;101214.59;5015210;28;20117;-84
2022/11/01 10:40:27;;;;;;;19.65;2.80;;;;;;;14.56;80.07;101200.19;5013544;28;20029;-84
2022/11/01 10:42:53;;;;;;;16.27;2.40;;;;;;;14.83;78.30;101217.44;5014970;28;20030;-82
2022/11/01 10:45:21;;;;;;;20.85;2.95;;;;;;;15.21;77.21;101208.84;5013709;28;20080;-83
2022/11/01 10:47:50;;;;;;;13.90;2.28;;;;;;;15.65;75.40;101185.78;5015043;28;20091;-86
2022/11/01 10:50:23;;;;;;;22.40;2.90;;;;;;;15.66;74.19;101209.16;5012991;28;20034;-86
2022/11/01 10:52:52;;;;;;;11.75;2.05;;;;;;;15.40;74.35;101202.63;5014732;28;20088;-85
2022/11/01 10:55:47;;;;;;;25.40;2.53;;;;;;;15.25;75.50;101227.22;4997108;28;20033;-83
2022/11/01 10:58:29;;;;;;;13.82;1.98;;;;;;;15.35;75.44;101216.00;5013569;28;20026;-82
2022/11/01 11:00:54;;;;;;;13.07;1.67;;;;;;;15.10;75.39;101221.94;5014791;28;20406;-82
2022/11/01 11:03:22;;;;;;;16.15;2.20;;;;;;;15.02;75.69;101226.69;5015380;28;20029;-84
2022/11/01 11:05:49;;;;;;;18.50;2.40;;;;;;;15.24;76.10;101205.72;4996540;28;20034;-83
2022/11/01 11:08:17;;;;;;;19.95;2.35;;;;;;;15.29;76.11;101227.63;5013875;28;20046;-83
2022/11/01 11:10:43;;;;;;;13.50;1.90;;;;;;;15.46;75.20;101225.41;5014250;28;20072;-85
2022/11/01 11:13:09;;;;;;;21.98;2.63;;;;;;;15.61;73.85;101214.34;5012932;28;20086;-84
2022/11/01 11:15:53;;;;;;;11.82;2.08;;;;;;;15.42;74.42;101202.44;5014748;28;20458;-85
2022/11/01 11:18:41;;;;;;;15.77;2.25;;;;;;;15.24;74.94;101225.53;5014732;28;20030;-83
2022/11/01 11:21:10;;;;;;;;;;;;;;;15.37;74.79;101211.16;5021417;28;20466;-84
2022/11/01 11:23:43;;;;;;;19.50;2.38;;;;;;;15.51;73.70;101198.50;5017374;28;19910;-83
2022/11/01 11:26:12;;;;;;;18.90;2.10;;;;;;;15.75;73.47;101210.66;5017845;28;20041;-83
2022/11/01 11:28:43;;;;;;;16.27;2.67;;;;;;;15.75;72.64;101206.06;5017666;28;20034;-85
2022/11/01 11:31:30;;;;;;;16.10;2.13;;;;;;;15.83;71.91;101215.06;5017210;28;20450;-82
2022/11/01 11:33:58;;;;;;;22.55;2.28;;;;;;;15.79;72.14;101201.88;5018076;28;20362;-84